Library, PA (15129)

7:53 PM EDT on July 23, 2016 (GMT -0400)
Residential | | Change Station
Active Advisory: Areal Flood Advisory Active Notice: Local Storm Report

Elev 1076 ft 40.29 °N, 80.02 °W | Updated 18 seconds ago

Mostly Cloudy
Mostly Cloudy
75.2 °F
Feels Like 74 °F
N
0.0
Wind Variable Wind from NE

Today
High -- | Low -- °F
--% Chance of Precip.
Yesterday
High -- | Low -- °F
Precip. -- in
Pressure 29.97 in
Visibility 10.0 miles
Clouds Scattered Clouds 7500 ft
Mostly Cloudy 9000 ft
Heat Index 74 °F
Dew Point 72 °F
Humidity 90%
Rainfall in
Snow Depth Not available.
6:09 AM 8:42 PM
Waning Gibbous, 81% visible
METAR KAGC 232253Z 20009KT 10SM SCT075 BKN090 26/21 A2998 RMK AO2 SLP147 T02560206
Pressure 29.97 in
Visibility 10.0 miles
Clouds Scattered Clouds 7500 ft
Mostly Cloudy 9000 ft
Heat Index 74 °F
Dew Point 72 °F
Humidity 90%
Rainfall in
Snow Depth Not available.
6:09 AM 8:42 PM
Waning Gibbous, 81% visible
METAR KAGC 232253Z 20009KT 10SM SCT075 BKN090 26/21 A2998 RMK AO2 SLP147 T02560206

10-Day Weather Forecast

Almanac

Astronomy

Jul. 23, 2016 Rise Set
Actual Time
Civil Twilight
Nautical Twilight
Astronomical Twilight
Moon
Length of Visible Light
Length of Day
Tomorrow will be .
, % of the Moon is Illuminated

Today's Extremes

State Highs State Lows

Community

WunderPhotos

Upload Photos

1,926,975 photos uploaded!

WunderBlog® & News

Nearby

Air Quality

  Air Quality AQ Index Pollutant
Not available.

Snow Depth

Station Depth Elevation

Earthquake Activity

City Distance Mag. Time & Date
Minimum magnitude displayed is 2.5.

Coastal Water Temperatures

Place Temperature

Stations

Nearby Weather Stations

Station Location Temp. Windchill Dew Point Humidity Wind Precip. Elev Updated Type
                   

Watches & Warnings

Areal Flood Advisory
Issued: 6:28 PM EDT Jul. 23, 2016 – National Weather Service

The National Weather Service in Pittsburgh has issued a

* Flood Advisory for...
central Washington County in southwestern Pennsylvania...
southwestern Allegheny County in southwestern Pennsylvania...

* until 930 PM EDT

* at 625 PM EDT... emergency management reported heavy rain in
northern portions of Washington County due to thunderstorms.
Flooding has been reported along Route 50 in Cecil township.

* Some locations that could experience flooding include...
Bethel Park... McMurray... Canonsburg... Gastonville...
upper St. Clair... Cecil-Bishop... Bridgeville... Charleroi...
McGovern... Bentleyville... McDonald... Sturgeon-Noblestown...
New Eagle... Wickerham Manor-Fisher... Baidland... North Charleroi...
Houston... Speers... Eighty Four and Finleyville.

Please report flooding by calling 4 1 2... 2 6 2... 1 9 8 8... posting
to the NWS Pittsburgh facebook Page... or using twitter
@nwspittsburgh.

Precautionary/preparedness actions...

Turn around... don't drown when encountering flooded roads. Most flood
deaths occur in vehicles.


Lat... Lon 4039 8014 4013 7989 4013 8013 4039 8034